createdAt,value
2022-10-09T00:01:51.259Z,16.33
2022-10-09T00:04:18.523Z,16.15
2022-10-09T00:06:45.833Z,17.73
2022-10-09T00:09:14.194Z,16.38
2022-10-09T00:11:41.445Z,14.80
2022-10-09T00:14:08.826Z,15.27
2022-10-09T00:16:36.269Z,15.10
2022-10-09T00:19:03.606Z,14.00
2022-10-09T00:21:32.217Z,12.10
2022-10-09T00:24:00.655Z,14.77
2022-10-09T00:26:28.074Z,15.68
2022-10-09T00:28:55.844Z,14.73
2022-10-09T00:31:23.344Z,12.25
2022-10-09T00:33:50.685Z,16.10
2022-10-09T00:36:20.232Z,14.00
2022-10-09T00:38:47.725Z,15.93
2022-10-09T00:41:19.658Z,16.20
2022-10-09T00:43:46.995Z,17.02
2022-10-09T00:46:21.997Z,14.80
2022-10-09T00:48:56.550Z,15.65
2022-10-09T00:51:23.847Z,14.38
2022-10-09T00:53:51.198Z,18.85
2022-10-09T00:56:18.471Z,14.02
2022-10-09T00:58:47.371Z,13.50
2022-10-09T01:01:14.760Z,14.70
2022-10-09T01:03:42.178Z,12.30
2022-10-09T01:06:13.792Z,11.77
2022-10-09T01:08:50.751Z,14.50
2022-10-09T01:11:23.231Z,9.88
2022-10-09T01:13:52.907Z,17.13
2022-10-09T01:16:24.755Z,12.77
2022-10-09T01:19:01.728Z,17.10
2022-10-09T01:21:35.786Z,19.13
2022-10-09T01:24:15.241Z,13.32
2022-10-09T01:27:03.982Z,18.75
2022-10-09T01:29:54.130Z,14.15
2022-10-09T01:32:23.787Z,18.88
2022-10-09T01:34:51.339Z,13.45
2022-10-09T01:37:19.491Z,13.55
2022-10-09T01:39:46.968Z,14.73
2022-10-09T01:42:14.704Z,14.52
2022-10-09T01:44:42.155Z,16.23
2022-10-09T01:47:16.677Z,20.02
2022-10-09T01:49:49.651Z,12.52
2022-10-09T01:52:47.523Z,15.05
2022-10-09T01:55:33.495Z,15.15
2022-10-09T01:58:50.729Z,16.63
2022-10-09T02:01:27.057Z,13.23
2022-10-09T02:03:54.940Z,12.95
2022-10-09T02:06:22.277Z,17.13
2022-10-09T02:08:50.420Z,18.60
2022-10-09T02:11:17.925Z,15.30
2022-10-09T02:13:46.233Z,15.00
2022-10-09T02:16:21.814Z,16.30
2022-10-09T02:19:08.880Z,16.40
2022-10-09T02:21:39.861Z,12.88
2022-10-09T02:24:08.272Z,19.55
2022-10-09T02:26:36.070Z,16.85
2022-10-09T02:29:03.720Z,14.93
2022-10-09T02:31:32.325Z,20.77
2022-10-09T02:34:01.434Z,14.95
2022-10-09T02:36:28.993Z,17.85
2022-10-09T02:38:56.370Z,18.73
2022-10-09T02:41:23.947Z,15.30
2022-10-09T02:43:51.447Z,18.85
2022-10-09T02:46:18.862Z,16.13
2022-10-09T02:48:46.218Z,14.57
2022-10-09T02:51:13.543Z,18.63
2022-10-09T02:53:40.872Z,19.98
2022-10-09T02:56:08.275Z,15.93
2022-10-09T02:58:35.822Z,16.75
2022-10-09T03:01:03.314Z,17.88
2022-10-09T03:03:30.809Z,18.02
2022-10-09T03:06:09.347Z,14.73
2022-10-09T03:08:37.499Z,15.45
2022-10-09T03:11:05.541Z,16.65
2022-10-09T03:13:32.961Z,19.23
2022-10-09T03:16:08.218Z,12.68
2022-10-09T03:18:35.762Z,17.70
2022-10-09T03:21:11.439Z,12.25
2022-10-09T03:23:38.705Z,12.95
2022-10-09T03:26:10.804Z,14.48
2022-10-09T03:28:39.093Z,12.77
2022-10-09T03:31:06.792Z,13.88
2022-10-09T03:33:37.312Z,13.90
2022-10-09T03:36:05.093Z,20.52
2022-10-09T03:38:32.454Z,15.48
2022-10-09T03:41:00.267Z,12.55
2022-10-09T03:43:28.829Z,13.38
2022-10-09T03:46:00.350Z,14.77
2022-10-09T03:48:28.309Z,13.10
2022-10-09T03:50:55.647Z,13.98
2022-10-09T03:53:22.936Z,11.98
2022-10-09T03:55:50.252Z,13.38
2022-10-09T03:58:17.507Z,12.38
2022-10-09T04:00:47.598Z,15.38
2022-10-09T04:03:14.899Z,14.30
2022-10-09T04:05:42.196Z,14.50
2022-10-09T04:08:09.499Z,13.60
2022-10-09T04:10:36.779Z,14.07
2022-10-09T04:13:04.101Z,14.40
2022-10-09T04:15:31.413Z,15.10
2022-10-09T04:17:58.679Z,10.50
2022-10-09T04:20:25.974Z,13.70
2022-10-09T04:22:53.248Z,16.30
2022-10-09T04:25:20.622Z,16.33
2022-10-09T04:27:47.903Z,13.18
2022-10-09T04:30:15.242Z,13.32
2022-10-09T04:32:42.605Z,14.13
2022-10-09T04:35:09.912Z,12.15
2022-10-09T04:37:37.237Z,15.68
2022-10-09T04:40:05.014Z,11.50
2022-10-09T04:42:32.271Z,17.85
2022-10-09T04:44:59.621Z,12.65
2022-10-09T04:47:26.884Z,13.60
2022-10-09T04:49:54.198Z,12.82
2022-10-09T04:52:21.467Z,14.15
2022-10-09T04:54:48.789Z,18.00
2022-10-09T04:57:16.085Z,11.32
2022-10-09T04:59:43.459Z,15.55
2022-10-09T05:02:10.785Z,15.90
2022-10-09T05:04:38.191Z,17.35
2022-10-09T05:07:05.496Z,10.45
2022-10-09T05:09:32.751Z,16.10
2022-10-09T05:12:00.059Z,10.60
2022-10-09T05:14:27.350Z,13.35
2022-10-09T05:17:12.929Z,16.60
2022-10-09T05:19:41.632Z,15.27
2022-10-09T05:22:08.933Z,16.92
2022-10-09T05:24:36.191Z,13.57
2022-10-09T05:27:03.541Z,12.63
2022-10-09T05:29:30.802Z,12.10
2022-10-09T05:31:58.078Z,14.27
2022-10-09T05:34:25.506Z,12.30
2022-10-09T05:36:52.765Z,18.08
2022-10-09T05:39:20.115Z,10.82
2022-10-09T05:41:47.392Z,18.08
2022-10-09T05:44:14.659Z,16.98
2022-10-09T05:46:42.022Z,13.63
2022-10-09T05:49:09.897Z,15.52
2022-10-09T05:51:38.264Z,12.32
2022-10-09T05:54:06.092Z,14.20
2022-10-09T05:56:34.995Z,16.90
2022-10-09T05:59:09.803Z,15.60
2022-10-09T06:01:38.581Z,13.50
2022-10-09T06:04:06.655Z,13.60
2022-10-09T06:06:35.433Z,15.43
2022-10-09T06:09:02.707Z,11.82
2022-10-09T06:11:34.024Z,11.63
2022-10-09T06:14:05.032Z,14.23
2022-10-09T06:16:34.117Z,15.48
2022-10-09T06:19:01.471Z,16.58
2022-10-09T06:21:28.882Z,11.73
2022-10-09T06:24:00.430Z,11.60
2022-10-09T06:26:29.270Z,11.80
2022-10-09T06:28:59.598Z,13.07
2022-10-09T06:31:29.045Z,10.80
2022-10-09T06:33:57.736Z,13.18
2022-10-09T06:36:26.326Z,13.85
2022-10-09T06:38:53.878Z,18.58
2022-10-09T06:41:23.018Z,11.63
2022-10-09T06:43:54.209Z,13.68
2022-10-09T06:46:23.345Z,12.18
2022-10-09T06:48:50.691Z,13.25
2022-10-09T06:51:19.482Z,14.43
2022-10-09T06:53:48.608Z,14.77
2022-10-09T06:56:16.252Z,11.07
2022-10-09T06:58:43.612Z,14.00
2022-10-09T07:01:17.721Z,11.68
2022-10-09T07:03:46.619Z,12.88
2022-10-09T07:06:15.917Z,14.75
2022-10-09T07:08:45.406Z,14.32
2022-10-09T07:11:17.453Z,13.82
2022-10-09T07:13:44.702Z,16.80
2022-10-09T07:16:12.085Z,9.80
2022-10-09T07:18:39.443Z,19.15
2022-10-09T07:21:08.307Z,13.40
2022-10-09T07:23:35.924Z,13.95
2022-10-09T07:26:13.124Z,11.65
2022-10-09T07:28:41.293Z,18.77
2022-10-09T07:31:08.954Z,12.65
2022-10-09T07:33:36.445Z,14.90
2022-10-09T07:36:04.436Z,11.13
2022-10-09T07:38:31.880Z,12.95
2022-10-09T07:41:12.430Z,12.55
2022-10-09T07:43:42.081Z,13.57
2022-10-09T07:46:13.808Z,13.25
2022-10-09T07:48:41.197Z,13.23
2022-10-09T07:51:16.407Z,17.20
2022-10-09T07:53:43.828Z,17.58
2022-10-09T07:56:29.450Z,18.27
2022-10-09T07:59:01.603Z,13.80
2022-10-09T08:01:29.347Z,15.80
2022-10-09T08:03:56.905Z,17.92
2022-10-09T08:06:24.278Z,13.90
2022-10-09T08:08:56.018Z,15.70
2022-10-09T08:11:24.185Z,11.73
2022-10-09T08:13:51.677Z,16.88
2022-10-09T08:16:20.041Z,16.42
2022-10-09T08:18:47.588Z,15.02
2022-10-09T08:21:16.463Z,18.02
2022-10-09T08:23:43.870Z,19.33
2022-10-09T08:26:18.758Z,19.42
2022-10-09T08:28:54.021Z,15.93
2022-10-09T08:31:21.545Z,14.07
2022-10-09T08:33:52.312Z,14.48
2022-10-09T08:36:19.590Z,16.25
2022-10-09T08:38:48.102Z,14.45
2022-10-09T08:41:42.106Z,20.75
2022-10-09T08:44:32.014Z,17.13
2022-10-09T08:47:39.562Z,14.57
2022-10-09T08:50:10.229Z,16.15
2022-10-09T08:52:47.857Z,14.35
2022-10-09T08:55:26.103Z,15.32
2022-10-09T08:57:55.379Z,16.55
2022-10-09T09:00:27.768Z,18.20
2022-10-09T09:03:16.668Z,16.30
2022-10-09T09:06:17.315Z,20.50
2022-10-09T09:08:53.560Z,18.10
2022-10-09T09:11:29.524Z,19.33
2022-10-09T09:14:21.690Z,18.25
2022-10-09T09:17:10.814Z,16.88
2022-10-09T09:19:56.980Z,18.27
2022-10-09T09:22:24.688Z,16.90
2022-10-09T09:24:57.076Z,19.10
2022-10-09T09:27:32.906Z,15.52
2022-10-09T09:30:12.455Z,16.63
2022-10-09T09:32:42.166Z,17.58
2022-10-09T09:35:20.375Z,16.52
2022-10-09T09:37:47.896Z,17.88
2022-10-09T09:40:36.877Z,20.80
2022-10-09T09:43:05.083Z,16.17
2022-10-09T09:45:32.592Z,17.75
2022-10-09T09:48:13.310Z,10.88
2022-10-09T09:50:50.503Z,12.23
2022-10-09T09:53:32.335Z,13.30
2022-10-09T09:55:59.729Z,14.63
2022-10-09T09:58:50.526Z,13.40
2022-10-09T10:01:24.633Z,12.18
2022-10-09T10:03:53.678Z,16.58
2022-10-09T10:06:25.465Z,16.75
2022-10-09T10:09:04.043Z,17.05
2022-10-09T10:11:32.196Z,14.27
2022-10-09T10:14:07.984Z,14.05
2022-10-09T10:16:37.498Z,12.38
2022-10-09T10:19:06.172Z,11.73
2022-10-09T10:21:41.422Z,11.10
2022-10-09T10:24:12.077Z,12.20
2022-10-09T10:27:00.060Z,13.85
2022-10-09T10:29:43.625Z,16.50
2022-10-09T10:32:17.858Z,10.20
2022-10-09T10:34:50.638Z,11.70
2022-10-09T10:37:24.108Z,16.70
2022-10-09T10:39:54.898Z,11.57
2022-10-09T10:42:27.666Z,10.88
2022-10-09T10:45:04.224Z,11.15
2022-10-09T10:47:34.331Z,12.07
2022-10-09T10:50:01.766Z,8.27
2022-10-09T10:52:37.862Z,14.07
2022-10-09T10:55:43.938Z,9.68
2022-10-09T10:58:22.997Z,10.68
2022-10-09T11:01:24.325Z,5.85
2022-10-09T11:04:29.607Z,12.73
2022-10-09T11:07:16.950Z,7.25
2022-10-09T11:09:47.523Z,9.98
2022-10-09T11:12:57.822Z,8.07
2022-10-09T11:15:48.841Z,9.93
2022-10-09T11:18:51.456Z,11.50
2022-10-09T11:21:21.882Z,9.60
2022-10-09T11:24:24.196Z,10.00
2022-10-09T11:27:03.020Z,10.05
2022-10-09T11:29:36.000Z,10.70
2022-10-09T11:32:16.816Z,7.97
2022-10-09T11:34:47.334Z,10.63
2022-10-09T11:37:20.563Z,9.27
2022-10-09T11:39:47.943Z,8.88
2022-10-09T11:42:17.394Z,13.38
2022-10-09T11:45:23.402Z,11.13
2022-10-09T11:48:05.620Z,9.02
2022-10-09T11:50:51.539Z,9.73
2022-10-09T11:53:20.047Z,10.23
2022-10-09T11:55:48.459Z,13.20
2022-10-09T11:58:18.822Z,9.90
2022-10-09T12:00:47.308Z,7.88
2022-10-09T12:03:35.152Z,11.75
2022-10-09T12:06:16.033Z,9.05
2022-10-09T12:08:53.413Z,7.80
2022-10-09T12:11:20.711Z,7.30
2022-10-09T12:13:52.670Z,12.23
2022-10-09T12:16:42.599Z,11.65
2022-10-09T12:19:26.821Z,10.20
2022-10-09T12:21:59.803Z,19.23
2022-10-09T12:24:32.063Z,11.80
2022-10-09T12:27:03.143Z,9.82
2022-10-09T12:29:39.375Z,9.30
2022-10-09T12:32:11.638Z,9.75
2022-10-09T12:34:43.640Z,8.93
2022-10-09T12:37:21.363Z,9.38
2022-10-09T12:39:49.416Z,8.45
2022-10-09T12:42:22.218Z,10.57
2022-10-09T12:44:50.716Z,8.93
2022-10-09T12:47:23.534Z,18.38
2022-10-09T12:50:16.416Z,7.22
2022-10-09T12:53:13.442Z,9.43
2022-10-09T12:55:51.595Z,10.52
2022-10-09T12:58:22.628Z,10.00
2022-10-09T13:00:58.187Z,6.85
2022-10-09T13:03:39.427Z,8.57
2022-10-09T13:06:17.191Z,10.93
2022-10-09T13:08:44.823Z,12.75
2022-10-09T13:11:16.441Z,7.63
2022-10-09T13:13:47.984Z,13.27
2022-10-09T13:16:15.377Z,13.30
2022-10-09T13:18:42.804Z,14.45
2022-10-09T13:21:16.907Z,8.68
2022-10-09T13:23:44.259Z,11.15
2022-10-09T13:26:15.995Z,10.88
2022-10-09T13:28:43.317Z,11.82
2022-10-09T13:31:10.860Z,8.63
2022-10-09T13:33:38.211Z,6.88
2022-10-09T13:36:05.687Z,12.13
2022-10-09T13:38:35.166Z,13.80
2022-10-09T13:41:02.972Z,11.50
2022-10-09T13:43:31.141Z,8.13
2022-10-09T13:45:58.579Z,11.50
2022-10-09T13:48:26.015Z,9.52
2022-10-09T13:50:53.427Z,9.75
2022-10-09T13:53:20.706Z,11.05
2022-10-09T13:55:48.010Z,7.70
2022-10-09T13:58:15.269Z,10.27
2022-10-09T14:00:44.694Z,13.15
2022-10-09T14:03:12.093Z,11.25
2022-10-09T14:05:40.854Z,10.48
2022-10-09T14:08:08.182Z,7.43
2022-10-09T14:10:35.449Z,8.90
2022-10-09T14:13:02.761Z,16.92
2022-10-09T14:15:30.052Z,8.50
2022-10-09T14:17:57.400Z,9.43
2022-10-09T14:20:26.964Z,10.88
2022-10-09T14:22:54.712Z,11.30
2022-10-09T14:25:22.105Z,7.75
2022-10-09T14:27:49.375Z,9.30
2022-10-09T14:30:16.763Z,11.88
2022-10-09T14:32:44.108Z,7.60
2022-10-09T14:35:11.467Z,8.73
2022-10-09T14:37:42.487Z,9.50
2022-10-09T14:40:11.073Z,11.90
2022-10-09T14:42:38.696Z,7.22
2022-10-09T14:45:06.463Z,10.48
2022-10-09T14:47:33.923Z,10.15
2022-10-09T14:50:01.209Z,13.95
2022-10-09T14:52:28.477Z,9.10
2022-10-09T14:54:55.783Z,11.73
2022-10-09T14:57:23.051Z,10.32
2022-10-09T14:59:50.319Z,10.98
2022-10-09T15:02:17.770Z,14.07
2022-10-09T15:04:45.057Z,10.95
2022-10-09T15:07:12.365Z,11.98
2022-10-09T15:09:39.616Z,12.40
2022-10-09T15:12:06.972Z,14.05
2022-10-09T15:14:34.304Z,13.90
2022-10-09T15:17:01.878Z,10.75
2022-10-09T15:19:29.143Z,11.27
2022-10-09T15:21:56.500Z,14.00
2022-10-09T15:24:23.782Z,13.40
2022-10-09T15:26:51.104Z,10.63
2022-10-09T15:29:18.513Z,12.23
2022-10-09T15:31:45.782Z,16.50
2022-10-09T15:34:17.613Z,8.90
2022-10-09T15:36:45.948Z,12.68
2022-10-09T15:39:13.626Z,11.85
2022-10-09T15:41:41.953Z,8.52
2022-10-09T15:44:19.499Z,11.93
2022-10-09T15:46:47.120Z,9.82
2022-10-09T15:49:14.578Z,10.65
2022-10-09T15:51:41.959Z,13.48
2022-10-09T15:54:10.535Z,9.90
2022-10-09T15:56:40.077Z,9.88
2022-10-09T15:59:09.518Z,10.38
2022-10-09T16:01:36.930Z,10.60
2022-10-09T16:04:04.318Z,10.88
2022-10-09T16:06:31.623Z,13.02
2022-10-09T16:08:59.148Z,11.00
2022-10-09T16:11:26.937Z,13.70
2022-10-09T16:13:54.526Z,9.32
2022-10-09T16:16:23.350Z,10.80
2022-10-09T16:18:50.751Z,8.93
2022-10-09T16:21:23.630Z,7.93
2022-10-09T16:23:55.843Z,9.45
2022-10-09T16:26:26.164Z,12.18
2022-10-09T16:28:53.561Z,17.67
2022-10-09T16:31:22.554Z,11.10
2022-10-09T16:33:49.888Z,9.98
2022-10-09T16:36:17.293Z,13.15
2022-10-09T16:38:44.749Z,10.75
2022-10-09T16:41:14.892Z,13.45
2022-10-09T16:43:42.216Z,14.38
2022-10-09T16:46:10.619Z,11.77
2022-10-09T16:48:37.947Z,11.52
2022-10-09T16:51:12.669Z,8.98
2022-10-09T16:53:40.182Z,10.10
2022-10-09T16:56:12.305Z,14.23
2022-10-09T16:58:40.251Z,14.07
2022-10-09T17:01:10.139Z,10.57
2022-10-09T17:03:40.531Z,10.40
2022-10-09T17:06:12.915Z,11.60
2022-10-09T17:08:40.434Z,13.00
2022-10-09T17:11:08.940Z,11.88
2022-10-09T17:13:36.536Z,11.75
2022-10-09T17:16:07.937Z,11.68
2022-10-09T17:18:35.405Z,7.95
2022-10-09T17:21:03.795Z,11.20
2022-10-09T17:23:31.183Z,12.35
2022-10-09T17:25:58.638Z,11.40
2022-10-09T17:28:26.111Z,12.77
2022-10-09T17:30:53.432Z,16.33
2022-10-09T17:33:20.728Z,12.48
2022-10-09T17:35:48.033Z,9.07
2022-10-09T17:38:15.500Z,11.23
2022-10-09T17:40:42.932Z,14.93
2022-10-09T17:43:10.215Z,9.73
2022-10-09T17:45:41.409Z,11.20
2022-10-09T17:48:09.405Z,19.23
2022-10-09T17:50:36.874Z,13.48
2022-10-09T17:53:04.210Z,14.85
2022-10-09T17:55:31.701Z,11.75
2022-10-09T17:57:59.035Z,12.95
2022-10-09T18:00:26.420Z,11.30
2022-10-09T18:02:53.705Z,12.70
2022-10-09T18:05:21.576Z,12.80
2022-10-09T18:07:49.186Z,12.00
2022-10-09T18:10:16.984Z,11.93
2022-10-09T18:12:44.423Z,13.48
2022-10-09T18:15:11.867Z,12.43
2022-10-09T18:17:39.237Z,11.65
2022-10-09T18:20:07.034Z,15.77
2022-10-09T18:22:37.610Z,14.20
2022-10-09T18:25:05.633Z,15.40
2022-10-09T18:27:32.975Z,11.20
2022-10-09T18:30:00.359Z,20.05
2022-10-09T18:32:27.726Z,15.52
2022-10-09T18:34:54.998Z,15.52
2022-10-09T18:37:22.395Z,13.25
2022-10-09T18:39:49.977Z,15.63
2022-10-09T18:42:17.355Z,16.25
2022-10-09T18:44:44.653Z,14.77
2022-10-09T18:47:14.642Z,18.13
2022-10-09T18:49:46.721Z,15.07
2022-10-09T18:52:14.264Z,16.08
2022-10-09T18:54:42.263Z,17.33
2022-10-09T18:57:09.572Z,19.15
2022-10-09T18:59:37.693Z,14.25
2022-10-09T19:02:05.061Z,11.20
2022-10-09T19:04:32.742Z,13.15
2022-10-09T19:07:00.092Z,13.40
2022-10-09T19:09:27.484Z,12.10
2022-10-09T19:11:54.777Z,10.20
2022-10-09T19:14:22.200Z,15.13
2022-10-09T19:16:49.467Z,15.23
2022-10-09T19:19:16.943Z,11.95
2022-10-09T19:21:44.363Z,12.88
2022-10-09T19:24:12.285Z,13.57
2022-10-09T19:26:39.819Z,10.43
2022-10-09T19:29:07.318Z,16.20
2022-10-09T19:31:35.545Z,14.55
2022-10-09T19:34:03.606Z,12.85
2022-10-09T19:36:36.583Z,17.40
2022-10-09T19:39:07.814Z,11.65
2022-10-09T19:41:35.230Z,12.27
2022-10-09T19:44:02.611Z,13.52
2022-10-09T19:46:29.935Z,12.82
2022-10-09T19:48:57.339Z,11.93
2022-10-09T19:51:25.704Z,12.85
2022-10-09T19:53:53.555Z,15.38
2022-10-09T19:56:26.270Z,13.45
2022-10-09T19:58:53.757Z,12.43
2022-10-09T20:01:22.696Z,12.20
2022-10-09T20:03:57.003Z,14.25
2022-10-09T20:06:24.359Z,14.55
2022-10-09T20:08:51.666Z,12.27
2022-10-09T20:11:20.581Z,12.00
2022-10-09T20:13:52.098Z,10.73
2022-10-09T20:18:49.604Z,10.23
2022-10-09T20:21:17.614Z,10.98
2022-10-09T20:23:45.054Z,10.82
2022-10-09T20:26:18.068Z,9.45
2022-10-09T20:28:46.234Z,9.98
2022-10-09T20:31:16.388Z,9.30
2022-10-09T20:33:43.827Z,10.10
2022-10-09T20:36:31.795Z,13.40
2022-10-09T20:39:00.743Z,12.02
2022-10-09T20:41:28.993Z,10.02
2022-10-09T20:43:57.538Z,10.15
2022-10-09T20:46:25.296Z,11.68
2022-10-09T20:48:52.795Z,9.27
2022-10-09T20:51:20.397Z,11.70
2022-10-09T20:53:55.970Z,12.85
2022-10-09T20:56:24.103Z,12.77
2022-10-09T20:58:51.392Z,10.02
2022-10-09T21:01:18.887Z,13.20
2022-10-09T21:03:46.250Z,10.13
2022-10-09T21:06:15.059Z,12.90
2022-10-09T21:08:42.354Z,10.95
2022-10-09T21:11:13.854Z,11.65
2022-10-09T21:13:41.682Z,11.27
2022-10-09T21:16:10.926Z,8.88
2022-10-09T21:18:38.376Z,13.57
2022-10-09T21:21:13.671Z,10.63
2022-10-09T21:23:41.516Z,9.90
2022-10-09T21:26:16.447Z,10.55
2022-10-09T21:28:43.855Z,10.73
2022-10-09T21:31:13.057Z,10.98
2022-10-09T21:33:40.336Z,10.32
2022-10-09T21:36:31.652Z,12.15
2022-10-09T21:38:59.049Z,12.07
2022-10-09T21:41:26.507Z,15.35
2022-10-09T21:43:53.851Z,10.90
2022-10-09T21:46:21.448Z,11.27
2022-10-09T21:48:48.761Z,13.80
2022-10-09T21:51:16.083Z,11.40
2022-10-09T21:53:43.368Z,10.52
2022-10-09T21:56:10.835Z,9.05
2022-10-09T21:58:38.725Z,9.55
2022-10-09T22:01:06.398Z,10.00
2022-10-09T22:03:34.727Z,11.90
2022-10-09T22:06:11.620Z,11.77
2022-10-09T22:08:42.437Z,11.82
2022-10-09T22:11:10.286Z,11.35
2022-10-09T22:13:37.661Z,14.45
2022-10-09T22:16:09.179Z,13.25
2022-10-09T22:18:36.821Z,9.10
2022-10-09T22:21:06.191Z,8.98
2022-10-09T22:23:34.819Z,13.95
2022-10-09T22:26:04.442Z,11.60
2022-10-09T22:28:31.864Z,11.15
2022-10-09T22:31:13.464Z,11.52
2022-10-09T22:33:41.001Z,14.85
2022-10-09T22:36:13.142Z,10.98
2022-10-09T22:38:40.543Z,13.55
2022-10-09T22:41:18.535Z,12.35
2022-10-09T22:43:47.323Z,13.55
2022-10-09T22:46:16.306Z,14.05
2022-10-09T22:48:43.784Z,12.80
2022-10-09T22:51:12.736Z,12.68
2022-10-09T22:53:40.283Z,16.02
2022-10-09T22:56:09.086Z,15.38
2022-10-09T22:58:36.353Z,24.10
2022-10-09T23:01:15.464Z,18.63
2022-10-09T23:03:43.035Z,16.30
2022-10-09T23:06:12.216Z,21.88
2022-10-09T23:08:40.240Z,18.98
2022-10-09T23:11:07.696Z,21.00
2022-10-09T23:13:34.959Z,18.90
2022-10-09T23:16:03.135Z,22.13
2022-10-09T23:18:30.516Z,16.45
2022-10-09T23:20:57.868Z,20.20
2022-10-09T23:23:25.251Z,19.30
2022-10-09T23:25:52.534Z,21.48
2022-10-09T23:28:19.817Z,21.38
2022-10-09T23:30:47.263Z,22.10
2022-10-09T23:33:14.701Z,26.52
2022-10-09T23:35:43.588Z,31.15
2022-10-09T23:38:10.929Z,27.85
2022-10-09T23:40:38.215Z,22.92
2022-10-09T23:43:05.543Z,25.30
2022-10-09T23:45:32.792Z,27.90
2022-10-09T23:48:00.091Z,26.70
2022-10-09T23:50:27.403Z,28.55
2022-10-09T23:52:54.702Z,29.38
2022-10-09T23:55:22.017Z,35.92
2022-10-09T23:57:50.531Z,30.25
